Terminal Aerodrome Forecast
Issued by NWS Cleveland, OH

Home | Current Version | Previous Version | Graphics & Text | Print | Product List | Glossary On
Versions: 1 2 3 4 5 6 7 8 9 10 11 12 13 14
696
FTUS41 KCLE 231039 AAB
TAFCAK
TAF AMD
KCAK 231039Z 2311/2406 22010KT 3SM -RA OVC014
      TEMPO 2311/2312 2SM RA OVC006
     FM231200 22014KT P6SM OVC008
     FM231600 22015G22KT 5SM -SHRA BR VCTS OVC015CB
      TEMPO 2316/2319 24012KT 1SM TSRA OVC005CB
     FM232200 24010KT 5SM -SHRA OVC018
     FM240100 25007KT P6SM OVC018=

USA.gov is the U.S. government's official web portal to all federal, state and local government web resources and services.